sensor_id;sensor_type;location;lat;lon;timestamp;temperature;humidity
66088;DHT22;52872;52.994;6.940;2023-04-01T00:01:16;11.90;99.90
66088;DHT22;52872;52.994;6.940;2023-04-01T00:03:43;11.80;99.90
66088;DHT22;52872;52.994;6.940;2023-04-01T00:06:14;11.80;99.90
66088;DHT22;52872;52.994;6.940;2023-04-01T00:08:41;11.80;99.90
66088;DHT22;52872;52.994;6.940;2023-04-01T00:11:08;11.90;99.90
66088;DHT22;52872;52.994;6.940;2023-04-01T00:13:36;11.80;99.90
66088;DHT22;52872;52.994;6.940;2023-04-01T00:16:03;11.90;99.90
66088;DHT22;52872;52.994;6.940;2023-04-01T00:18:39;11.80;99.90
66088;DHT22;52872;52.994;6.940;2023-04-01T00:21:06;11.80;99.90
66088;DHT22;52872;52.994;6.940;2023-04-01T00:23:34;11.80;99.90
66088;DHT22;52872;52.994;6.940;2023-04-01T00:26:02;11.80;99.90
66088;DHT22;52872;52.994;6.940;2023-04-01T00:28:29;11.80;99.90
66088;DHT22;52872;52.994;6.940;2023-04-01T00:30:57;11.90;99.90
66088;DHT22;52872;52.994;6.940;2023-04-01T00:33:24;11.80;99.90
66088;DHT22;52872;52.994;6.940;2023-04-01T00:35:51;11.90;99.90
66088;DHT22;52872;52.994;6.940;2023-04-01T00:38:18;11.80;99.90
66088;DHT22;52872;52.994;6.940;2023-04-01T00:40:46;11.80;99.90
66088;DHT22;52872;52.994;6.940;2023-04-01T00:43:18;11.80;99.90
66088;DHT22;52872;52.994;6.940;2023-04-01T00:45:48;11.80;99.90
66088;DHT22;52872;52.994;6.940;2023-04-01T00:48:20;11.80;99.90
66088;DHT22;52872;52.994;6.940;2023-04-01T00:50:53;11.90;99.90
66088;DHT22;52872;52.994;6.940;2023-04-01T00:53:21;11.80;99.90
66088;DHT22;52872;52.994;6.940;2023-04-01T00:55:56;11.80;99.90
66088;DHT22;52872;52.994;6.940;2023-04-01T00:58:26;11.80;99.90
66088;DHT22;52872;52.994;6.940;2023-04-01T01:00:55;11.70;99.90
66088;DHT22;52872;52.994;6.940;2023-04-01T01:03:23;11.70;99.90
66088;DHT22;52872;52.994;6.940;2023-04-01T01:10:58;11.70;99.90
66088;DHT22;52872;52.994;6.940;2023-04-01T01:13:42;11.60;99.90
66088;DHT22;52872;52.994;6.940;2023-04-01T01:27:04;11.40;99.90
66088;DHT22;52872;52.994;6.940;2023-04-01T01:37:54;11.50;99.90
66088;DHT22;52872;52.994;6.940;2023-04-01T01:40:22;11.50;99.90
66088;DHT22;52872;52.994;6.940;2023-04-01T01:42:53;11.60;99.90
66088;DHT22;52872;52.994;6.940;2023-04-01T01:45:23;11.60;99.90
66088;DHT22;52872;52.994;6.940;2023-04-01T01:47:52;11.60;99.90
66088;DHT22;52872;52.994;6.940;2023-04-01T01:50:21;11.60;99.90
66088;DHT22;52872;52.994;6.940;2023-04-01T01:52:49;11.60;99.90
66088;DHT22;52872;52.994;6.940;2023-04-01T01:55:32;11.60;99.90
66088;DHT22;52872;52.994;6.940;2023-04-01T01:58:30;11.70;99.90
66088;DHT22;52872;52.994;6.940;2023-04-01T02:01:00;11.70;99.90
66088;DHT22;52872;52.994;6.940;2023-04-01T02:03:32;11.60;99.90
66088;DHT22;52872;52.994;6.940;2023-04-01T02:06:04;11.70;99.90
66088;DHT22;52872;52.994;6.940;2023-04-01T02:08:39;11.70;99.90
66088;DHT22;52872;52.994;6.940;2023-04-01T02:11:12;11.70;99.90
66088;DHT22;52872;52.994;6.940;2023-04-01T02:13:57;11.70;99.90
66088;DHT22;52872;52.994;6.940;2023-04-01T02:16:33;11.70;99.90
66088;DHT22;52872;52.994;6.940;2023-04-01T02:19:03;11.70;99.90
66088;DHT22;52872;52.994;6.940;2023-04-01T02:21:34;11.70;99.90
66088;DHT22;52872;52.994;6.940;2023-04-01T02:24:08;11.70;99.90
66088;DHT22;52872;52.994;6.940;2023-04-01T02:26:36;11.70;99.90
66088;DHT22;52872;52.994;6.940;2023-04-01T02:29:05;11.70;99.90
66088;DHT22;52872;52.994;6.940;2023-04-01T02:31:34;11.70;99.90
66088;DHT22;52872;52.994;6.940;2023-04-01T02:34:02;11.70;99.90
66088;DHT22;52872;52.994;6.940;2023-04-01T02:36:30;11.70;99.90
66088;DHT22;52872;52.994;6.940;2023-04-01T02:38:58;11.70;99.90
66088;DHT22;52872;52.994;6.940;2023-04-01T02:41:30;11.70;99.90
66088;DHT22;52872;52.994;6.940;2023-04-01T02:43:57;11.60;99.90
66088;DHT22;52872;52.994;6.940;2023-04-01T02:46:26;11.60;99.90
66088;DHT22;52872;52.994;6.940;2023-04-01T02:48:53;11.60;99.90
66088;DHT22;52872;52.994;6.940;2023-04-01T02:51:20;11.60;99.90
66088;DHT22;52872;52.994;6.940;2023-04-01T02:53:47;11.50;99.90
66088;DHT22;52872;52.994;6.940;2023-04-01T02:56:14;11.50;99.90
66088;DHT22;52872;52.994;6.940;2023-04-01T02:58:41;11.50;99.90
66088;DHT22;52872;52.994;6.940;2023-04-01T03:01:08;11.50;99.90
66088;DHT22;52872;52.994;6.940;2023-04-01T03:03:35;11.50;99.90
66088;DHT22;52872;52.994;6.940;2023-04-01T03:06:07;11.50;99.90
66088;DHT22;52872;52.994;6.940;2023-04-01T03:08:34;11.50;99.90
66088;DHT22;52872;52.994;6.940;2023-04-01T03:11:02;11.50;99.90
66088;DHT22;52872;52.994;6.940;2023-04-01T03:13:30;11.40;99.90
66088;DHT22;52872;52.994;6.940;2023-04-01T03:15:57;11.50;99.90
66088;DHT22;52872;52.994;6.940;2023-04-01T03:18:24;11.50;99.90
66088;DHT22;52872;52.994;6.940;2023-04-01T03:20:51;11.50;99.90
66088;DHT22;52872;52.994;6.940;2023-04-01T03:23:18;11.50;99.90
66088;DHT22;52872;52.994;6.940;2023-04-01T03:25:47;11.40;99.90
66088;DHT22;52872;52.994;6.940;2023-04-01T03:28:15;11.50;99.90
66088;DHT22;52872;52.994;6.940;2023-04-01T03:30:43;11.40;99.90
66088;DHT22;52872;52.994;6.940;2023-04-01T03:33:10;11.40;99.90
66088;DHT22;52872;52.994;6.940;2023-04-01T03:35:37;11.40;99.90
66088;DHT22;52872;52.994;6.940;2023-04-01T03:38:05;11.50;99.90
66088;DHT22;52872;52.994;6.940;2023-04-01T03:40:32;11.40;99.90
66088;DHT22;52872;52.994;6.940;2023-04-01T03:43:00;11.40;99.90
66088;DHT22;52872;52.994;6.940;2023-04-01T03:45:27;11.40;99.90
66088;DHT22;52872;52.994;6.940;2023-04-01T03:47:54;11.30;99.90
66088;DHT22;52872;52.994;6.940;2023-04-01T03:50:21;11.40;99.90
66088;DHT22;52872;52.994;6.940;2023-04-01T03:52:48;11.30;99.90
66088;DHT22;52872;52.994;6.940;2023-04-01T03:55:15;11.30;99.90
66088;DHT22;52872;52.994;6.940;2023-04-01T03:57:43;11.40;99.90
66088;DHT22;52872;52.994;6.940;2023-04-01T04:00:17;11.40;99.90
66088;DHT22;52872;52.994;6.940;2023-04-01T04:02:48;11.30;99.90
66088;DHT22;52872;52.994;6.940;2023-04-01T04:05:20;11.30;99.90
66088;DHT22;52872;52.994;6.940;2023-04-01T04:07:47;11.30;99.90
66088;DHT22;52872;52.994;6.940;2023-04-01T04:10:13;11.40;99.90
66088;DHT22;52872;52.994;6.940;2023-04-01T04:12:41;11.40;99.90
66088;DHT22;52872;52.994;6.940;2023-04-01T04:15:09;11.40;99.90
66088;DHT22;52872;52.994;6.940;2023-04-01T04:17:37;11.40;99.90
66088;DHT22;52872;52.994;6.940;2023-04-01T04:20:04;11.40;99.90
66088;DHT22;52872;52.994;6.940;2023-04-01T04:22:31;11.40;99.90
66088;DHT22;52872;52.994;6.940;2023-04-01T04:24:59;11.40;99.90
66088;DHT22;52872;52.994;6.940;2023-04-01T04:27:26;11.40;99.90
66088;DHT22;52872;52.994;6.940;2023-04-01T04:30:03;11.30;99.90
66088;DHT22;52872;52.994;6.940;2023-04-01T04:32:30;11.30;99.90
66088;DHT22;52872;52.994;6.940;2023-04-01T04:34:57;11.30;99.90
66088;DHT22;52872;52.994;6.940;2023-04-01T04:37:24;11.30;99.90
66088;DHT22;52872;52.994;6.940;2023-04-01T04:39:52;11.20;99.90
66088;DHT22;52872;52.994;6.940;2023-04-01T04:42:19;11.20;99.90
66088;DHT22;52872;52.994;6.940;2023-04-01T04:44:46;11.20;99.90
66088;DHT22;52872;52.994;6.940;2023-04-01T04:47:13;11.10;99.90
66088;DHT22;52872;52.994;6.940;2023-04-01T04:49:41;11.10;99.90
66088;DHT22;52872;52.994;6.940;2023-04-01T04:52:09;11.10;99.90
66088;DHT22;52872;52.994;6.940;2023-04-01T04:54:36;11.10;99.90
66088;DHT22;52872;52.994;6.940;2023-04-01T04:57:03;11.10;99.90
66088;DHT22;52872;52.994;6.940;2023-04-01T04:59:36;11.10;99.90
66088;DHT22;52872;52.994;6.940;2023-04-01T05:02:11;11.10;99.90
66088;DHT22;52872;52.994;6.940;2023-04-01T05:04:38;11.00;99.90
66088;DHT22;52872;52.994;6.940;2023-04-01T05:07:08;11.00;99.90
66088;DHT22;52872;52.994;6.940;2023-04-01T05:09:35;11.00;99.90
66088;DHT22;52872;52.994;6.940;2023-04-01T05:12:03;11.00;99.90
66088;DHT22;52872;52.994;6.940;2023-04-01T05:14:48;11.00;99.90
66088;DHT22;52872;52.994;6.940;2023-04-01T05:17:15;10.90;99.90
66088;DHT22;52872;52.994;6.940;2023-04-01T05:19:42;10.90;99.90
66088;DHT22;52872;52.994;6.940;2023-04-01T05:22:09;11.00;99.90
66088;DHT22;52872;52.994;6.940;2023-04-01T05:24:36;10.90;99.90
66088;DHT22;52872;52.994;6.940;2023-04-01T05:27:03;10.90;99.90
66088;DHT22;52872;52.994;6.940;2023-04-01T05:29:31;10.80;99.90
66088;DHT22;52872;52.994;6.940;2023-04-01T05:32:04;10.90;99.90
66088;DHT22;52872;52.994;6.940;2023-04-01T05:34:31;10.80;99.90
66088;DHT22;52872;52.994;6.940;2023-04-01T05:36:58;10.80;99.90
66088;DHT22;52872;52.994;6.940;2023-04-01T05:39:25;10.70;99.90
66088;DHT22;52872;52.994;6.940;2023-04-01T05:41:53;10.70;99.90
66088;DHT22;52872;52.994;6.940;2023-04-01T05:44:20;10.70;99.90
66088;DHT22;52872;52.994;6.940;2023-04-01T05:47:03;10.70;99.90
66088;DHT22;52872;52.994;6.940;2023-04-01T05:49:31;10.70;99.90
66088;DHT22;52872;52.994;6.940;2023-04-01T05:52:00;10.70;99.90
66088;DHT22;52872;52.994;6.940;2023-04-01T05:54:27;10.70;99.90
66088;DHT22;52872;52.994;6.940;2023-04-01T05:56:54;10.70;99.90
66088;DHT22;52872;52.994;6.940;2023-04-01T05:59:21;10.70;99.90
66088;DHT22;52872;52.994;6.940;2023-04-01T06:01:49;10.70;99.90
66088;DHT22;52872;52.994;6.940;2023-04-01T06:04:17;10.70;99.90
66088;DHT22;52872;52.994;6.940;2023-04-01T06:06:45;10.70;99.90
66088;DHT22;52872;52.994;6.940;2023-04-01T06:09:26;10.70;99.90
66088;DHT22;52872;52.994;6.940;2023-04-01T06:26:10;10.90;99.90
66088;DHT22;52872;52.994;6.940;2023-04-01T06:28:46;11.00;99.90
66088;DHT22;52872;52.994;6.940;2023-04-01T06:42:17;11.20;99.90
66088;DHT22;52872;52.994;6.940;2023-04-01T06:54:47;11.60;99.90
66088;DHT22;52872;52.994;6.940;2023-04-01T06:57:45;11.70;99.90
66088;DHT22;52872;52.994;6.940;2023-04-01T07:00:29;11.90;99.90
66088;DHT22;52872;52.994;6.940;2023-04-01T07:03:05;12.00;99.90
66088;DHT22;52872;52.994;6.940;2023-04-01T07:05:35;12.00;99.90
66088;DHT22;52872;52.994;6.940;2023-04-01T07:08:08;12.10;99.90
66088;DHT22;52872;52.994;6.940;2023-04-01T07:11:01;12.30;99.90
66088;DHT22;52872;52.994;6.940;2023-04-01T07:14:21;12.40;99.90
66088;DHT22;52872;52.994;6.940;2023-04-01T07:17:05;12.40;99.90
66088;DHT22;52872;52.994;6.940;2023-04-01T07:19:45;12.50;99.90
66088;DHT22;52872;52.994;6.940;2023-04-01T07:22:33;12.50;99.90
66088;DHT22;52872;52.994;6.940;2023-04-01T07:25:41;12.50;99.90
66088;DHT22;52872;52.994;6.940;2023-04-01T07:28:31;12.50;99.90
66088;DHT22;52872;52.994;6.940;2023-04-01T07:37:08;12.40;99.90
66088;DHT22;52872;52.994;6.940;2023-04-01T07:39:44;12.40;99.90
66088;DHT22;52872;52.994;6.940;2023-04-01T07:48:30;12.40;99.90
66088;DHT22;52872;52.994;6.940;2023-04-01T07:51:26;12.40;99.90
66088;DHT22;52872;52.994;6.940;2023-04-01T07:57:08;12.40;99.90
66088;DHT22;52872;52.994;6.940;2023-04-01T08:00:14;12.30;99.90
66088;DHT22;52872;52.994;6.940;2023-04-01T08:03:26;12.30;99.90
66088;DHT22;52872;52.994;6.940;2023-04-01T08:06:14;12.10;99.90
66088;DHT22;52872;52.994;6.940;2023-04-01T08:15:26;12.20;99.90
66088;DHT22;52872;52.994;6.940;2023-04-01T08:20:59;12.20;99.90
66088;DHT22;52872;52.994;6.940;2023-04-01T08:23:37;12.20;99.90
66088;DHT22;52872;52.994;6.940;2023-04-01T08:29:02;12.40;99.90
66088;DHT22;52872;52.994;6.940;2023-04-01T08:31:37;12.40;99.90
66088;DHT22;52872;52.994;6.940;2023-04-01T08:34:08;12.50;99.90
66088;DHT22;52872;52.994;6.940;2023-04-01T08:36:45;12.40;99.90
66088;DHT22;52872;52.994;6.940;2023-04-01T08:39:57;12.50;99.90
66088;DHT22;52872;52.994;6.940;2023-04-01T09:08:25;13.40;99.90
66088;DHT22;52872;52.994;6.940;2023-04-01T09:14:37;13.50;99.90
66088;DHT22;52872;52.994;6.940;2023-04-01T09:25:26;13.60;99.90
66088;DHT22;52872;52.994;6.940;2023-04-01T09:28:20;13.60;99.90
66088;DHT22;52872;52.994;6.940;2023-04-01T09:42:48;13.60;99.90
66088;DHT22;52872;52.994;6.940;2023-04-01T09:51:27;13.20;99.90
66088;DHT22;52872;52.994;6.940;2023-04-01T09:54:13;13.30;99.90
66088;DHT22;52872;52.994;6.940;2023-04-01T10:27:30;13.50;99.90
66088;DHT22;52872;52.994;6.940;2023-04-01T10:35:56;12.70;99.90
66088;DHT22;52872;52.994;6.940;2023-04-01T10:50:53;12.60;99.90
66088;DHT22;52872;52.994;6.940;2023-04-01T11:08:45;12.00;99.90
66088;DHT22;52872;52.994;6.940;2023-04-01T11:14:25;12.00;99.90
66088;DHT22;52872;52.994;6.940;2023-04-01T11:20:39;11.80;99.90
66088;DHT22;52872;52.994;6.940;2023-04-01T11:23:26;11.70;99.90
66088;DHT22;52872;52.994;6.940;2023-04-01T11:42:57;11.50;99.90
66088;DHT22;52872;52.994;6.940;2023-04-01T11:46:56;11.50;99.90
66088;DHT22;52872;52.994;6.940;2023-04-01T11:52:18;11.60;99.90
66088;DHT22;52872;52.994;6.940;2023-04-01T11:55:10;11.60;99.90
66088;DHT22;52872;52.994;6.940;2023-04-01T12:00:44;11.90;99.90
66088;DHT22;52872;52.994;6.940;2023-04-01T12:06:02;12.00;99.90
66088;DHT22;52872;52.994;6.940;2023-04-01T12:14:00;12.30;99.90
66088;DHT22;52872;52.994;6.940;2023-04-01T12:16:50;12.50;99.90
66088;DHT22;52872;52.994;6.940;2023-04-01T12:23:13;12.50;99.90
66088;DHT22;52872;52.994;6.940;2023-04-01T12:28:46;12.30;99.90
66088;DHT22;52872;52.994;6.940;2023-04-01T12:31:22;12.20;99.90
66088;DHT22;52872;52.994;6.940;2023-04-01T12:39:43;12.10;99.90
66088;DHT22;52872;52.994;6.940;2023-04-01T12:42:31;12.00;99.90
66088;DHT22;52872;52.994;6.940;2023-04-01T12:51:20;12.10;99.90
66088;DHT22;52872;52.994;6.940;2023-04-01T12:54:14;12.10;99.90
66088;DHT22;52872;52.994;6.940;2023-04-01T13:16:11;11.70;99.90
66088;DHT22;52872;52.994;6.940;2023-04-01T13:21:38;11.60;99.90
66088;DHT22;52872;52.994;6.940;2023-04-01T13:27:42;11.60;99.90
66088;DHT22;52872;52.994;6.940;2023-04-01T13:30:47;11.50;99.90
66088;DHT22;52872;52.994;6.940;2023-04-01T13:33:40;11.50;99.90
66088;DHT22;52872;52.994;6.940;2023-04-01T14:06:48;10.80;99.90
66088;DHT22;52872;52.994;6.940;2023-04-01T14:17:34;10.70;99.90
66088;DHT22;52872;52.994;6.940;2023-04-01T14:20:33;10.80;99.90
66088;DHT22;52872;52.994;6.940;2023-04-01T14:41:05;10.80;99.90
66088;DHT22;52872;52.994;6.940;2023-04-01T14:46:03;10.80;99.90
66088;DHT22;52872;52.994;6.940;2023-04-01T14:49:04;10.90;99.90
66088;DHT22;52872;52.994;6.940;2023-04-01T14:51:41;11.00;99.90
66088;DHT22;52872;52.994;6.940;2023-04-01T14:57:03;11.00;99.90
66088;DHT22;52872;52.994;6.940;2023-04-01T14:59:29;11.00;99.90
66088;DHT22;52872;52.994;6.940;2023-04-01T15:08:26;10.90;99.90
66088;DHT22;52872;52.994;6.940;2023-04-01T15:17:22;10.80;99.90
66088;DHT22;52872;52.994;6.940;2023-04-01T15:20:16;10.90;99.90
66088;DHT22;52872;52.994;6.940;2023-04-01T15:38:57;10.90;99.90
66088;DHT22;52872;52.994;6.940;2023-04-01T15:44:39;10.80;99.90
66088;DHT22;52872;52.994;6.940;2023-04-01T15:50:28;10.70;99.90
66088;DHT22;52872;52.994;6.940;2023-04-01T15:53:18;10.60;99.90
66088;DHT22;52872;52.994;6.940;2023-04-01T16:01:47;10.40;99.90
66088;DHT22;52872;52.994;6.940;2023-04-01T16:22:16;10.10;99.90
66088;DHT22;52872;52.994;6.940;2023-04-01T16:30:38;9.70;99.90
66088;DHT22;52872;52.994;6.940;2023-04-01T16:33:31;9.70;99.90
66088;DHT22;52872;52.994;6.940;2023-04-01T16:45:30;9.60;99.90
66088;DHT22;52872;52.994;6.940;2023-04-01T16:56:27;9.40;99.90
66088;DHT22;52872;52.994;6.940;2023-04-01T17:01:27;9.30;99.90
66088;DHT22;52872;52.994;6.940;2023-04-01T17:04:07;9.30;99.90
66088;DHT22;52872;52.994;6.940;2023-04-01T17:06:58;9.40;99.90
66088;DHT22;52872;52.994;6.940;2023-04-01T17:09:47;9.40;99.90
66088;DHT22;52872;52.994;6.940;2023-04-01T17:20:35;8.90;99.90
66088;DHT22;52872;52.994;6.940;2023-04-01T17:23:18;8.80;99.90
66088;DHT22;52872;52.994;6.940;2023-04-01T17:28:48;8.70;99.90
66088;DHT22;52872;52.994;6.940;2023-04-01T17:31:41;8.50;99.90
66088;DHT22;52872;52.994;6.940;2023-04-01T17:39:47;8.10;99.90
66088;DHT22;52872;52.994;6.940;2023-04-01T17:42:34;8.10;99.90
66088;DHT22;52872;52.994;6.940;2023-04-01T17:53:47;7.80;99.90
66088;DHT22;52872;52.994;6.940;2023-04-01T17:56:34;7.80;99.90
66088;DHT22;52872;52.994;6.940;2023-04-01T17:59:09;7.70;99.90
66088;DHT22;52872;52.994;6.940;2023-04-01T18:01:46;7.60;99.90
66088;DHT22;52872;52.994;6.940;2023-04-01T18:05:01;7.70;99.90
66088;DHT22;52872;52.994;6.940;2023-04-01T18:07:23;7.60;99.90
66088;DHT22;52872;52.994;6.940;2023-04-01T18:26:35;7.50;99.90
66088;DHT22;52872;52.994;6.940;2023-04-01T18:31:54;7.50;99.90
66088;DHT22;52872;52.994;6.940;2023-04-01T18:40:32;7.40;99.90
66088;DHT22;52872;52.994;6.940;2023-04-01T18:45:34;7.30;99.90
66088;DHT22;52872;52.994;6.940;2023-04-01T18:51:03;7.30;99.90
66088;DHT22;52872;52.994;6.940;2023-04-01T18:54:02;7.30;99.90
66088;DHT22;52872;52.994;6.940;2023-04-01T18:56:37;7.20;99.90
66088;DHT22;52872;52.994;6.940;2023-04-01T18:59:10;7.10;99.90
66088;DHT22;52872;52.994;6.940;2023-04-01T19:04:33;7.10;99.90
66088;DHT22;52872;52.994;6.940;2023-04-01T19:10:00;7.10;99.90
66088;DHT22;52872;52.994;6.940;2023-04-01T19:21:12;7.20;99.90
66088;DHT22;52872;52.994;6.940;2023-04-01T19:26:33;7.10;99.90
66088;DHT22;52872;52.994;6.940;2023-04-01T19:40:30;7.10;99.90
66088;DHT22;52872;52.994;6.940;2023-04-01T19:45:59;7.10;99.90
66088;DHT22;52872;52.994;6.940;2023-04-01T19:51:31;7.10;99.90
66088;DHT22;52872;52.994;6.940;2023-04-01T19:54:25;7.10;99.90
66088;DHT22;52872;52.994;6.940;2023-04-01T19:57:13;7.00;99.90
66088;DHT22;52872;52.994;6.940;2023-04-01T20:04:55;7.00;99.90
66088;DHT22;52872;52.994;6.940;2023-04-01T20:07:51;6.90;99.90
66088;DHT22;52872;52.994;6.940;2023-04-01T20:10:24;6.90;99.90
66088;DHT22;52872;52.994;6.940;2023-04-01T20:13:05;7.00;99.90
66088;DHT22;52872;52.994;6.940;2023-04-01T20:15:41;6.90;99.90
66088;DHT22;52872;52.994;6.940;2023-04-01T20:18:45;6.90;99.90
66088;DHT22;52872;52.994;6.940;2023-04-01T20:23:52;6.90;99.90
66088;DHT22;52872;52.994;6.940;2023-04-01T20:26:30;6.90;99.90
66088;DHT22;52872;52.994;6.940;2023-04-01T20:32:12;6.80;99.90
66088;DHT22;52872;52.994;6.940;2023-04-01T20:40:32;6.80;99.90
66088;DHT22;52872;52.994;6.940;2023-04-01T21:00:07;6.70;99.90
66088;DHT22;52872;52.994;6.940;2023-04-01T21:11:37;6.70;99.90
66088;DHT22;52872;52.994;6.940;2023-04-01T21:14:40;6.70;99.90
66088;DHT22;52872;52.994;6.940;2023-04-01T21:20:06;6.70;99.90
66088;DHT22;52872;52.994;6.940;2023-04-01T21:28:23;6.80;99.90
66088;DHT22;52872;52.994;6.940;2023-04-01T21:34:02;6.70;99.90
66088;DHT22;52872;52.994;6.940;2023-04-01T21:39:16;6.60;99.90
66088;DHT22;52872;52.994;6.940;2023-04-01T21:50:53;6.60;99.90
66088;DHT22;52872;52.994;6.940;2023-04-01T22:12:53;6.30;99.90
66088;DHT22;52872;52.994;6.940;2023-04-01T22:18:21;6.20;99.90
66088;DHT22;52872;52.994;6.940;2023-04-01T22:20:53;6.20;99.90
66088;DHT22;52872;52.994;6.940;2023-04-01T22:36:53;5.90;99.90
66088;DHT22;52872;52.994;6.940;2023-04-01T22:39:33;5.90;99.90
66088;DHT22;52872;52.994;6.940;2023-04-01T22:42:15;6.00;99.90
66088;DHT22;52872;52.994;6.940;2023-04-01T22:47:37;6.00;99.90
66088;DHT22;52872;52.994;6.940;2023-04-01T22:50:18;5.90;99.90
66088;DHT22;52872;52.994;6.940;2023-04-01T22:52:48;5.90;99.90
66088;DHT22;52872;52.994;6.940;2023-04-01T22:55:24;5.80;99.90
66088;DHT22;52872;52.994;6.940;2023-04-01T23:00:35;5.90;99.90
66088;DHT22;52872;52.994;6.940;2023-04-01T23:06:03;5.70;99.90
66088;DHT22;52872;52.994;6.940;2023-04-01T23:36:10;5.70;99.90
66088;DHT22;52872;52.994;6.940;2023-04-01T23:38:41;5.80;99.90
66088;DHT22;52872;52.994;6.940;2023-04-01T23:41:26;5.80;99.90
66088;DHT22;52872;52.994;6.940;2023-04-01T23:43:58;5.80;99.90
66088;DHT22;52872;52.994;6.940;2023-04-01T23:46:27;5.80;99.90
66088;DHT22;52872;52.994;6.940;2023-04-01T23:48:56;5.70;99.90
66088;DHT22;52872;52.994;6.940;2023-04-01T23:51:26;5.80;99.90
66088;DHT22;52872;52.994;6.940;2023-04-01T23:54:01;5.70;99.90
66088;DHT22;52872;52.994;6.940;2023-04-01T23:56:39;5.70;99.90
66088;DHT22;52872;52.994;6.940;2023-04-01T23:59:19;5.80;99.90
